sensor_id;sensor_type;location;lat;lon;timestamp;temperature;humidity
67502;SHT30;54349;52.528;19.760;2023-04-24T00:00:29;25.44;43.34
67502;SHT30;54349;52.528;19.760;2023-04-24T00:03:18;25.44;43.29
67502;SHT30;54349;52.528;19.760;2023-04-24T00:05:48;25.45;43.29
67502;SHT30;54349;52.528;19.760;2023-04-24T00:08:17;25.46;43.28
67502;SHT30;54349;52.528;19.760;2023-04-24T00:10:46;25.46;43.28
67502;SHT30;54349;52.528;19.760;2023-04-24T00:13:14;25.46;43.21
67502;SHT30;54349;52.528;19.760;2023-04-24T00:15:42;25.47;43.20
67502;SHT30;54349;52.528;19.760;2023-04-24T00:18:11;25.47;43.19
67502;SHT30;54349;52.528;19.760;2023-04-24T00:20:39;25.48;43.20
67502;SHT30;54349;52.528;19.760;2023-04-24T00:23:07;25.48;43.10
67502;SHT30;54349;52.528;19.760;2023-04-24T00:25:36;25.47;42.95
67502;SHT30;54349;52.528;19.760;2023-04-24T00:28:04;25.45;42.84
67502;SHT30;54349;52.528;19.760;2023-04-24T00:30:32;25.42;42.71
67502;SHT30;54349;52.528;19.760;2023-04-24T00:33:00;25.40;42.65
67502;SHT30;54349;52.528;19.760;2023-04-24T00:35:29;25.38;42.58
67502;SHT30;54349;52.528;19.760;2023-04-24T00:37:57;25.36;42.50
67502;SHT30;54349;52.528;19.760;2023-04-24T00:40:26;25.33;42.50
67502;SHT30;54349;52.528;19.760;2023-04-24T00:42:56;25.31;42.44
67502;SHT30;54349;52.528;19.760;2023-04-24T00:45:25;25.29;42.41
67502;SHT30;54349;52.528;19.760;2023-04-24T00:47:54;25.26;42.36
67502;SHT30;54349;52.528;19.760;2023-04-24T00:50:23;25.25;42.31
67502;SHT30;54349;52.528;19.760;2023-04-24T00:52:52;25.22;42.30
67502;SHT30;54349;52.528;19.760;2023-04-24T00:55:21;25.19;42.30
67502;SHT30;54349;52.528;19.760;2023-04-24T00:57:50;25.17;42.24
67502;SHT30;54349;52.528;19.760;2023-04-24T01:00:19;25.16;42.23
67502;SHT30;54349;52.528;19.760;2023-04-24T01:02:48;25.14;42.21
67502;SHT30;54349;52.528;19.760;2023-04-24T01:05:17;25.11;42.22
67502;SHT30;54349;52.528;19.760;2023-04-24T01:07:47;25.10;42.19
67502;SHT30;54349;52.528;19.760;2023-04-24T01:10:16;25.08;42.17
67502;SHT30;54349;52.528;19.760;2023-04-24T01:12:46;25.06;42.18
67502;SHT30;54349;52.528;19.760;2023-04-24T01:15:14;25.04;42.14
67502;SHT30;54349;52.528;19.760;2023-04-24T01:17:43;25.02;42.15
67502;SHT30;54349;52.528;19.760;2023-04-24T01:20:11;25.01;42.10
67502;SHT30;54349;52.528;19.760;2023-04-24T01:22:41;24.98;42.10
67502;SHT30;54349;52.528;19.760;2023-04-24T01:25:10;24.96;42.12
67502;SHT30;54349;52.528;19.760;2023-04-24T01:27:38;24.94;42.12
67502;SHT30;54349;52.528;19.760;2023-04-24T01:30:07;24.93;42.10
67502;SHT30;54349;52.528;19.760;2023-04-24T01:32:37;24.92;42.10
67502;SHT30;54349;52.528;19.760;2023-04-24T01:35:07;24.90;42.09
67502;SHT30;54349;52.528;19.760;2023-04-24T01:37:35;24.88;42.10
67502;SHT30;54349;52.528;19.760;2023-04-24T01:40:07;24.86;42.11
67502;SHT30;54349;52.528;19.760;2023-04-24T01:42:36;24.85;42.09
67502;SHT30;54349;52.528;19.760;2023-04-24T01:45:05;24.83;42.10
67502;SHT30;54349;52.528;19.760;2023-04-24T01:47:34;24.82;42.10
67502;SHT30;54349;52.528;19.760;2023-04-24T01:50:03;24.80;42.10
67502;SHT30;54349;52.528;19.760;2023-04-24T01:52:47;24.78;42.09
67502;SHT30;54349;52.528;19.760;2023-04-24T01:55:16;24.76;42.10
67502;SHT30;54349;52.528;19.760;2023-04-24T01:57:45;24.76;42.10
67502;SHT30;54349;52.528;19.760;2023-04-24T02:00:14;24.74;42.10
67502;SHT30;54349;52.528;19.760;2023-04-24T02:02:43;24.73;42.10
67502;SHT30;54349;52.528;19.760;2023-04-24T02:05:15;24.71;42.10
67502;SHT30;54349;52.528;19.760;2023-04-24T02:07:43;24.71;42.10
67502;SHT30;54349;52.528;19.760;2023-04-24T02:10:11;24.68;42.10
67502;SHT30;54349;52.528;19.760;2023-04-24T02:12:42;24.67;42.11
67502;SHT30;54349;52.528;19.760;2023-04-24T02:15:11;24.65;42.10
67502;SHT30;54349;52.528;19.760;2023-04-24T02:17:40;24.64;42.10
67502;SHT30;54349;52.528;19.760;2023-04-24T02:20:08;24.63;42.12
67502;SHT30;54349;52.528;19.760;2023-04-24T02:22:38;24.62;42.10
67502;SHT30;54349;52.528;19.760;2023-04-24T02:25:07;24.60;42.13
67502;SHT30;54349;52.528;19.760;2023-04-24T02:27:36;24.59;42.15
67502;SHT30;54349;52.528;19.760;2023-04-24T02:30:06;24.58;42.14
67502;SHT30;54349;52.528;19.760;2023-04-24T02:32:36;24.57;42.12
67502;SHT30;54349;52.528;19.760;2023-04-24T02:35:04;24.55;42.11
67502;SHT30;54349;52.528;19.760;2023-04-24T02:37:34;24.53;42.14
67502;SHT30;54349;52.528;19.760;2023-04-24T02:40:02;24.53;42.14
67502;SHT30;54349;52.528;19.760;2023-04-24T02:42:33;24.51;42.18
67502;SHT30;54349;52.528;19.760;2023-04-24T02:45:01;24.50;42.19
67502;SHT30;54349;52.528;19.760;2023-04-24T02:47:29;24.48;42.19
67502;SHT30;54349;52.528;19.760;2023-04-24T02:50:00;24.46;42.18
67502;SHT30;54349;52.528;19.760;2023-04-24T02:52:30;24.47;42.23
67502;SHT30;54349;52.528;19.760;2023-04-24T02:54:58;24.45;42.22
67502;SHT30;54349;52.528;19.760;2023-04-24T02:57:27;24.44;42.21
67502;SHT30;54349;52.528;19.760;2023-04-24T02:59:55;24.42;42.23
67502;SHT30;54349;52.528;19.760;2023-04-24T03:02:24;24.41;42.26
67502;SHT30;54349;52.528;19.760;2023-04-24T03:04:52;24.39;42.26
67502;SHT30;54349;52.528;19.760;2023-04-24T03:07:21;24.38;42.26
67502;SHT30;54349;52.528;19.760;2023-04-24T03:09:49;24.36;42.27
67502;SHT30;54349;52.528;19.760;2023-04-24T03:12:17;24.35;42.29
67502;SHT30;54349;52.528;19.760;2023-04-24T03:14:45;24.34;42.28
67502;SHT30;54349;52.528;19.760;2023-04-24T03:17:13;24.33;42.29
67502;SHT30;54349;52.528;19.760;2023-04-24T03:19:42;24.32;42.32
67502;SHT30;54349;52.528;19.760;2023-04-24T03:22:11;24.32;42.32
67502;SHT30;54349;52.528;19.760;2023-04-24T03:24:40;24.29;42.35
67502;SHT30;54349;52.528;19.760;2023-04-24T03:27:08;24.29;42.35
67502;SHT30;54349;52.528;19.760;2023-04-24T03:30:06;24.27;42.32
67502;SHT30;54349;52.528;19.760;2023-04-24T03:32:43;24.26;42.35
67502;SHT30;54349;52.528;19.760;2023-04-24T03:35:13;24.25;42.37
67502;SHT30;54349;52.528;19.760;2023-04-24T03:37:42;24.24;42.40
67502;SHT30;54349;52.528;19.760;2023-04-24T03:40:28;24.23;42.40
67502;SHT30;54349;52.528;19.760;2023-04-24T03:42:58;24.23;42.41
67502;SHT30;54349;52.528;19.760;2023-04-24T03:45:26;24.21;42.41
67502;SHT30;54349;52.528;19.760;2023-04-24T03:47:54;24.20;42.41
67502;SHT30;54349;52.528;19.760;2023-04-24T03:50:23;24.19;42.40
67502;SHT30;54349;52.528;19.760;2023-04-24T03:52:51;24.18;42.43
67502;SHT30;54349;52.528;19.760;2023-04-24T03:55:30;24.17;42.48
67502;SHT30;54349;52.528;19.760;2023-04-24T03:57:58;24.16;42.45
67502;SHT30;54349;52.528;19.760;2023-04-24T04:00:26;24.15;42.48
67502;SHT30;54349;52.528;19.760;2023-04-24T04:03:03;24.14;42.49
67502;SHT30;54349;52.528;19.760;2023-04-24T04:05:32;24.14;42.49
67502;SHT30;54349;52.528;19.760;2023-04-24T04:08:00;24.12;42.50
67502;SHT30;54349;52.528;19.760;2023-04-24T04:10:29;24.12;42.50
67502;SHT30;54349;52.528;19.760;2023-04-24T04:12:57;24.11;42.52
67502;SHT30;54349;52.528;19.760;2023-04-24T04:15:25;24.10;42.54
67502;SHT30;54349;52.528;19.760;2023-04-24T04:17:54;24.09;42.52
67502;SHT30;54349;52.528;19.760;2023-04-24T04:20:23;24.09;42.52
67502;SHT30;54349;52.528;19.760;2023-04-24T04:22:52;24.07;42.51
67502;SHT30;54349;52.528;19.760;2023-04-24T04:25:25;24.07;42.47
67502;SHT30;54349;52.528;19.760;2023-04-24T04:27:53;24.07;42.45
67502;SHT30;54349;52.528;19.760;2023-04-24T04:30:22;24.06;42.40
67502;SHT30;54349;52.528;19.760;2023-04-24T04:32:58;24.06;42.40
67502;SHT30;54349;52.528;19.760;2023-04-24T04:35:28;24.03;42.38
67502;SHT30;54349;52.528;19.760;2023-04-24T04:37:58;24.03;42.36
67502;SHT30;54349;52.528;19.760;2023-04-24T04:40:46;24.03;42.31
67502;SHT30;54349;52.528;19.760;2023-04-24T04:43:15;24.02;42.30
67502;SHT30;54349;52.528;19.760;2023-04-24T04:45:48;24.01;42.27
67502;SHT30;54349;52.528;19.760;2023-04-24T04:48:25;24.01;42.21
67502;SHT30;54349;52.528;19.760;2023-04-24T04:50:55;24.00;42.20
67502;SHT30;54349;52.528;19.760;2023-04-24T04:53:24;24.00;42.27
67502;SHT30;54349;52.528;19.760;2023-04-24T04:55:53;23.99;42.31
67502;SHT30;54349;52.528;19.760;2023-04-24T04:58:26;23.99;42.37
67502;SHT30;54349;52.528;19.760;2023-04-24T05:00:58;23.98;42.40
67502;SHT30;54349;52.528;19.760;2023-04-24T05:03:39;23.98;42.43
67502;SHT30;54349;52.528;19.760;2023-04-24T05:06:10;23.98;42.42
67502;SHT30;54349;52.528;19.760;2023-04-24T05:08:39;23.97;42.48
67502;SHT30;54349;52.528;19.760;2023-04-24T05:11:17;23.97;42.52
67502;SHT30;54349;52.528;19.760;2023-04-24T05:13:46;23.96;42.55
67502;SHT30;54349;52.528;19.760;2023-04-24T05:16:19;23.96;42.59
67502;SHT30;54349;52.528;19.760;2023-04-24T05:18:47;23.96;42.61
67502;SHT30;54349;52.528;19.760;2023-04-24T05:21:18;23.96;42.68
67502;SHT30;54349;52.528;19.760;2023-04-24T05:23:52;23.95;42.68
67502;SHT30;54349;52.528;19.760;2023-04-24T05:26:31;23.95;42.73
67502;SHT30;54349;52.528;19.760;2023-04-24T05:29:03;23.95;42.77
67502;SHT30;54349;52.528;19.760;2023-04-24T05:31:31;23.95;42.79
67502;SHT30;54349;52.528;19.760;2023-04-24T05:34:01;23.94;42.80
67502;SHT30;54349;52.528;19.760;2023-04-24T05:36:30;23.94;42.81
67502;SHT30;54349;52.528;19.760;2023-04-24T05:39:02;23.94;42.81
67502;SHT30;54349;52.528;19.760;2023-04-24T05:41:36;23.94;42.89
67502;SHT30;54349;52.528;19.760;2023-04-24T05:44:07;23.94;42.88
67502;SHT30;54349;52.528;19.760;2023-04-24T05:46:37;23.93;42.91
67502;SHT30;54349;52.528;19.760;2023-04-24T05:49:06;23.93;42.92
67502;SHT30;54349;52.528;19.760;2023-04-24T05:51:35;23.93;42.93
67502;SHT30;54349;52.528;19.760;2023-04-24T05:54:04;23.93;42.97
67502;SHT30;54349;52.528;19.760;2023-04-24T05:56:33;23.93;42.96
67502;SHT30;54349;52.528;19.760;2023-04-24T05:59:03;23.93;43.00
67502;SHT30;54349;52.528;19.760;2023-04-24T06:01:32;23.92;43.00
67502;SHT30;54349;52.528;19.760;2023-04-24T06:04:11;23.93;43.01
67502;SHT30;54349;52.528;19.760;2023-04-24T06:06:43;23.92;43.01
67502;SHT30;54349;52.528;19.760;2023-04-24T06:09:12;23.93;43.04
67502;SHT30;54349;52.528;19.760;2023-04-24T06:11:40;23.93;43.06
67502;SHT30;54349;52.528;19.760;2023-04-24T06:14:09;23.92;43.04
67502;SHT30;54349;52.528;19.760;2023-04-24T06:16:37;23.92;43.18
67502;SHT30;54349;52.528;19.760;2023-04-24T06:19:15;23.92;43.38
67502;SHT30;54349;52.528;19.760;2023-04-24T06:21:43;23.92;43.58
67502;SHT30;54349;52.528;19.760;2023-04-24T06:24:14;23.92;43.67
67502;SHT30;54349;52.528;19.760;2023-04-24T06:26:44;23.92;43.78
67502;SHT30;54349;52.528;19.760;2023-04-24T06:29:12;23.92;43.86
67502;SHT30;54349;52.528;19.760;2023-04-24T06:31:40;23.91;43.88
67502;SHT30;54349;52.528;19.760;2023-04-24T06:34:10;23.92;43.87
67502;SHT30;54349;52.528;19.760;2023-04-24T06:36:38;23.93;43.90
67502;SHT30;54349;52.528;19.760;2023-04-24T06:39:06;23.93;44.06
67502;SHT30;54349;52.528;19.760;2023-04-24T06:41:35;23.95;44.57
67502;SHT30;54349;52.528;19.760;2023-04-24T06:44:03;23.95;44.67
67502;SHT30;54349;52.528;19.760;2023-04-24T06:46:31;23.98;44.70
67502;SHT30;54349;52.528;19.760;2023-04-24T06:49:00;24.00;44.75
67502;SHT30;54349;52.528;19.760;2023-04-24T06:51:28;24.03;44.82
67502;SHT30;54349;52.528;19.760;2023-04-24T06:53:56;24.06;44.92
67502;SHT30;54349;52.528;19.760;2023-04-24T06:56:24;24.08;44.98
67502;SHT30;54349;52.528;19.760;2023-04-24T06:58:53;24.12;44.97
67502;SHT30;54349;52.528;19.760;2023-04-24T07:01:22;24.15;45.04
67502;SHT30;54349;52.528;19.760;2023-04-24T07:03:51;24.17;45.10
67502;SHT30;54349;52.528;19.760;2023-04-24T07:06:20;24.21;45.11
67502;SHT30;54349;52.528;19.760;2023-04-24T07:08:50;24.24;45.11
67502;SHT30;54349;52.528;19.760;2023-04-24T07:11:18;24.27;45.14
67502;SHT30;54349;52.528;19.760;2023-04-24T07:13:47;24.29;45.05
67502;SHT30;54349;52.528;19.760;2023-04-24T07:16:15;24.32;45.32
67502;SHT30;54349;52.528;19.760;2023-04-24T07:18:44;24.35;45.60
67502;SHT30;54349;52.528;19.760;2023-04-24T07:21:12;24.39;45.82
67502;SHT30;54349;52.528;19.760;2023-04-24T07:23:40;24.43;45.90
67502;SHT30;54349;52.528;19.760;2023-04-24T07:26:09;24.45;45.98
67502;SHT30;54349;52.528;19.760;2023-04-24T07:28:37;24.47;45.53
67502;SHT30;54349;52.528;19.760;2023-04-24T07:31:06;24.49;45.27
67502;SHT30;54349;52.528;19.760;2023-04-24T07:33:36;24.50;45.11
67502;SHT30;54349;52.528;19.760;2023-04-24T07:36:04;24.50;44.95
67502;SHT30;54349;52.528;19.760;2023-04-24T07:38:32;24.51;44.80
67502;SHT30;54349;52.528;19.760;2023-04-24T07:41:01;24.52;44.67
67502;SHT30;54349;52.528;19.760;2023-04-24T07:43:29;24.51;44.60
67502;SHT30;54349;52.528;19.760;2023-04-24T07:45:57;24.51;44.49
67502;SHT30;54349;52.528;19.760;2023-04-24T07:48:25;24.52;44.38
67502;SHT30;54349;52.528;19.760;2023-04-24T07:50:54;24.52;44.13
67502;SHT30;54349;52.528;19.760;2023-04-24T07:53:22;24.53;44.11
67502;SHT30;54349;52.528;19.760;2023-04-24T07:55:50;24.52;44.08
67502;SHT30;54349;52.528;19.760;2023-04-24T07:58:19;24.52;44.00
67502;SHT30;54349;52.528;19.760;2023-04-24T08:00:47;24.54;43.95
67502;SHT30;54349;52.528;19.760;2023-04-24T08:03:15;24.54;43.90
67502;SHT30;54349;52.528;19.760;2023-04-24T08:05:47;24.54;43.81
67502;SHT30;54349;52.528;19.760;2023-04-24T08:08:15;24.54;43.62
67502;SHT30;54349;52.528;19.760;2023-04-24T08:10:44;24.54;43.49
67502;SHT30;54349;52.528;19.760;2023-04-24T08:13:12;24.54;43.51
67502;SHT30;54349;52.528;19.760;2023-04-24T08:15:40;24.55;43.33
67502;SHT30;54349;52.528;19.760;2023-04-24T08:18:08;24.56;43.20
67502;SHT30;54349;52.528;19.760;2023-04-24T08:20:39;24.56;43.21
67502;SHT30;54349;52.528;19.760;2023-04-24T08:23:07;24.57;43.20
67502;SHT30;54349;52.528;19.760;2023-04-24T08:25:36;24.56;42.87
67502;SHT30;54349;52.528;19.760;2023-04-24T08:28:05;24.57;41.59
67502;SHT30;54349;52.528;19.760;2023-04-24T08:30:34;24.58;41.66
67502;SHT30;54349;52.528;19.760;2023-04-24T08:33:02;24.57;41.38
67502;SHT30;54349;52.528;19.760;2023-04-24T08:35:30;24.58;41.23
67502;SHT30;54349;52.528;19.760;2023-04-24T08:37:59;24.59;41.64
67502;SHT30;54349;52.528;19.760;2023-04-24T08:40:27;24.59;41.51
67502;SHT30;54349;52.528;19.760;2023-04-24T08:42:58;24.59;40.97
67502;SHT30;54349;52.528;19.760;2023-04-24T08:45:28;24.60;41.24
67502;SHT30;54349;52.528;19.760;2023-04-24T08:47:57;24.60;41.32
67502;SHT30;54349;52.528;19.760;2023-04-24T08:50:26;24.61;41.36
67502;SHT30;54349;52.528;19.760;2023-04-24T08:52:56;24.61;41.27
67502;SHT30;54349;52.528;19.760;2023-04-24T08:55:25;24.62;41.05
67502;SHT30;54349;52.528;19.760;2023-04-24T08:57:54;24.62;41.13
67502;SHT30;54349;52.528;19.760;2023-04-24T09:00:22;24.63;41.30
67502;SHT30;54349;52.528;19.760;2023-04-24T09:02:51;24.64;41.33
67502;SHT30;54349;52.528;19.760;2023-04-24T09:05:22;24.64;41.31
67502;SHT30;54349;52.528;19.760;2023-04-24T09:07:55;24.64;41.31
67502;SHT30;54349;52.528;19.760;2023-04-24T09:10:25;24.64;41.24
67502;SHT30;54349;52.528;19.760;2023-04-24T09:12:53;24.65;41.19
67502;SHT30;54349;52.528;19.760;2023-04-24T09:15:24;24.65;41.14
67502;SHT30;54349;52.528;19.760;2023-04-24T09:17:53;24.66;41.06
67502;SHT30;54349;52.528;19.760;2023-04-24T09:20:21;24.67;41.06
67502;SHT30;54349;52.528;19.760;2023-04-24T09:22:52;24.67;41.01
67502;SHT30;54349;52.528;19.760;2023-04-24T09:25:30;24.68;41.03
67502;SHT30;54349;52.528;19.760;2023-04-24T09:28:04;24.68;41.08
67502;SHT30;54349;52.528;19.760;2023-04-24T09:30:34;24.69;41.10
67502;SHT30;54349;52.528;19.760;2023-04-24T09:33:14;24.69;41.09
67502;SHT30;54349;52.528;19.760;2023-04-24T09:35:50;24.70;41.10
67502;SHT30;54349;52.528;19.760;2023-04-24T09:38:20;24.71;41.08
67502;SHT30;54349;52.528;19.760;2023-04-24T09:41:02;24.71;41.09
67502;SHT30;54349;52.528;19.760;2023-04-24T09:43:34;24.72;41.06
67502;SHT30;54349;52.528;19.760;2023-04-24T09:46:07;24.73;41.03
67502;SHT30;54349;52.528;19.760;2023-04-24T09:48:37;24.73;41.00
67502;SHT30;54349;52.528;19.760;2023-04-24T09:51:06;24.73;40.97
67502;SHT30;54349;52.528;19.760;2023-04-24T09:53:34;24.74;40.95
67502;SHT30;54349;52.528;19.760;2023-04-24T09:56:07;24.75;40.92
67502;SHT30;54349;52.528;19.760;2023-04-24T09:58:37;24.75;40.88
67502;SHT30;54349;52.528;19.760;2023-04-24T10:01:06;24.76;40.83
67502;SHT30;54349;52.528;19.760;2023-04-24T10:03:34;24.76;40.76
67502;SHT30;54349;52.528;19.760;2023-04-24T10:06:04;24.77;40.73
67502;SHT30;54349;52.528;19.760;2023-04-24T10:08:38;24.78;40.64
67502;SHT30;54349;52.528;19.760;2023-04-24T10:11:07;24.78;40.60
67502;SHT30;54349;52.528;19.760;2023-04-24T10:13:38;24.78;40.52
67502;SHT30;54349;52.528;19.760;2023-04-24T10:16:09;24.80;40.43
67502;SHT30;54349;52.528;19.760;2023-04-24T10:18:38;24.80;40.39
67502;SHT30;54349;52.528;19.760;2023-04-24T10:21:07;24.82;40.33
67502;SHT30;54349;52.528;19.760;2023-04-24T10:23:35;24.82;40.23
67502;SHT30;54349;52.528;19.760;2023-04-24T10:26:05;24.83;40.19
67502;SHT30;54349;52.528;19.760;2023-04-24T10:28:34;24.84;40.15
67502;SHT30;54349;52.528;19.760;2023-04-24T10:31:04;24.84;40.09
67502;SHT30;54349;52.528;19.760;2023-04-24T10:33:33;24.86;40.10
67502;SHT30;54349;52.528;19.760;2023-04-24T10:36:02;24.88;40.01
67502;SHT30;54349;52.528;19.760;2023-04-24T10:38:30;24.89;39.96
67502;SHT30;54349;52.528;19.760;2023-04-24T10:41:09;24.91;39.89
67502;SHT30;54349;52.528;19.760;2023-04-24T10:43:43;24.92;39.82
67502;SHT30;54349;52.528;19.760;2023-04-24T10:46:16;24.92;39.78
67502;SHT30;54349;52.528;19.760;2023-04-24T10:48:54;24.94;39.75
67502;SHT30;54349;52.528;19.760;2023-04-24T10:51:43;24.95;39.71
67502;SHT30;54349;52.528;19.760;2023-04-24T10:54:26;24.97;39.62
67502;SHT30;54349;52.528;19.760;2023-04-24T10:59:50;24.99;39.54
67502;SHT30;54349;52.528;19.760;2023-04-24T11:02:37;25.02;39.47
67502;SHT30;54349;52.528;19.760;2023-04-24T11:05:08;25.04;39.50
67502;SHT30;54349;52.528;19.760;2023-04-24T11:11:28;25.07;39.40
67502;SHT30;54349;52.528;19.760;2023-04-24T11:21:57;25.14;39.23
67502;SHT30;54349;52.528;19.760;2023-04-24T11:32:26;25.20;39.04
67502;SHT30;54349;52.528;19.760;2023-04-24T11:35:08;25.19;39.01
67502;SHT30;54349;52.528;19.760;2023-04-24T11:37:46;25.19;38.97
67502;SHT30;54349;52.528;19.760;2023-04-24T11:40:21;25.21;39.02
67502;SHT30;54349;52.528;19.760;2023-04-24T11:42:51;25.23;39.03
67502;SHT30;54349;52.528;19.760;2023-04-24T11:45:25;25.26;38.95
67502;SHT30;54349;52.528;19.760;2023-04-24T11:47:55;25.30;38.84
67502;SHT30;54349;52.528;19.760;2023-04-24T11:50:25;25.30;38.80
67502;SHT30;54349;52.528;19.760;2023-04-24T11:52:56;25.33;38.73
67502;SHT30;54349;52.528;19.760;2023-04-24T11:55:25;25.35;38.63
67502;SHT30;54349;52.528;19.760;2023-04-24T11:57:57;25.36;38.63
67502;SHT30;54349;52.528;19.760;2023-04-24T12:00:31;25.37;38.60
67502;SHT30;54349;52.528;19.760;2023-04-24T12:03:05;25.38;38.55
67502;SHT30;54349;52.528;19.760;2023-04-24T12:05:39;25.39;38.52
67502;SHT30;54349;52.528;19.760;2023-04-24T12:08:08;25.39;38.49
67502;SHT30;54349;52.528;19.760;2023-04-24T12:10:37;25.39;38.55
67502;SHT30;54349;52.528;19.760;2023-04-24T12:13:05;25.39;38.52
67502;SHT30;54349;52.528;19.760;2023-04-24T12:15:39;25.41;38.55
67502;SHT30;54349;52.528;19.760;2023-04-24T12:18:08;25.41;38.52
67502;SHT30;54349;52.528;19.760;2023-04-24T12:20:41;25.41;38.48
67502;SHT30;54349;52.528;19.760;2023-04-24T12:23:09;25.41;38.45
67502;SHT30;54349;52.528;19.760;2023-04-24T12:25:38;25.41;38.42
67502;SHT30;54349;52.528;19.760;2023-04-24T12:28:11;25.41;38.42
67502;SHT30;54349;52.528;19.760;2023-04-24T12:30:42;25.43;38.44
67502;SHT30;54349;52.528;19.760;2023-04-24T12:33:18;25.43;38.38
67502;SHT30;54349;52.528;19.760;2023-04-24T12:35:48;25.42;38.40
67502;SHT30;54349;52.528;19.760;2023-04-24T12:38:25;25.42;38.41
67502;SHT30;54349;52.528;19.760;2023-04-24T12:43:37;25.44;38.44
67502;SHT30;54349;52.528;19.760;2023-04-24T12:46:06;25.45;38.42
67502;SHT30;54349;52.528;19.760;2023-04-24T12:48:35;25.46;38.35
67502;SHT30;54349;52.528;19.760;2023-04-24T12:51:03;25.47;38.29
67502;SHT30;54349;52.528;19.760;2023-04-24T12:53:32;25.47;38.26
67502;SHT30;54349;52.528;19.760;2023-04-24T12:56:01;25.47;38.23
67502;SHT30;54349;52.528;19.760;2023-04-24T12:58:29;25.48;38.21
67502;SHT30;54349;52.528;19.760;2023-04-24T13:00:58;25.50;38.21
67502;SHT30;54349;52.528;19.760;2023-04-24T13:03:26;25.51;38.22
67502;SHT30;54349;52.528;19.760;2023-04-24T13:05:55;25.51;38.15
67502;SHT30;54349;52.528;19.760;2023-04-24T13:08:23;25.51;38.11
67502;SHT30;54349;52.528;19.760;2023-04-24T13:10:51;25.52;38.09
67502;SHT30;54349;52.528;19.760;2023-04-24T13:13:19;25.54;37.94
67502;SHT30;54349;52.528;19.760;2023-04-24T13:15:48;25.55;37.90
67502;SHT30;54349;52.528;19.760;2023-04-24T13:18:16;25.56;37.83
67502;SHT30;54349;52.528;19.760;2023-04-24T13:20:56;25.55;37.80
67502;SHT30;54349;52.528;19.760;2023-04-24T13:23:24;25.56;37.74
67502;SHT30;54349;52.528;19.760;2023-04-24T13:25:53;25.56;37.69
67502;SHT30;54349;52.528;19.760;2023-04-24T13:28:25;25.58;37.56
67502;SHT30;54349;52.528;19.760;2023-04-24T13:30:53;25.58;37.51
67502;SHT30;54349;52.528;19.760;2023-04-24T13:33:22;25.60;37.53
67502;SHT30;54349;52.528;19.760;2023-04-24T13:35:50;25.62;37.53
67502;SHT30;54349;52.528;19.760;2023-04-24T13:38:19;25.63;37.51
67502;SHT30;54349;52.528;19.760;2023-04-24T13:40:49;25.62;37.45
67502;SHT30;54349;52.528;19.760;2023-04-24T13:43:17;25.62;37.38
67502;SHT30;54349;52.528;19.760;2023-04-24T13:45:45;25.62;37.33
67502;SHT30;54349;52.528;19.760;2023-04-24T13:48:14;25.61;37.34
67502;SHT30;54349;52.528;19.760;2023-04-24T13:50:45;25.61;37.29
67502;SHT30;54349;52.528;19.760;2023-04-24T13:53:16;25.61;37.27
67502;SHT30;54349;52.528;19.760;2023-04-24T13:55:45;25.60;37.16
67502;SHT30;54349;52.528;19.760;2023-04-24T13:58:13;25.59;37.23
67502;SHT30;54349;52.528;19.760;2023-04-24T14:00:43;25.58;37.33
67502;SHT30;54349;52.528;19.760;2023-04-24T14:03:11;25.57;37.40
67502;SHT30;54349;52.528;19.760;2023-04-24T14:05:40;25.57;37.41
67502;SHT30;54349;52.528;19.760;2023-04-24T14:08:08;25.55;37.47
67502;SHT30;54349;52.528;19.760;2023-04-24T14:10:38;25.54;37.48
67502;SHT30;54349;52.528;19.760;2023-04-24T14:13:08;25.53;37.43
67502;SHT30;54349;52.528;19.760;2023-04-24T14:15:36;25.53;37.46
67502;SHT30;54349;52.528;19.760;2023-04-24T14:18:04;25.52;37.49
67502;SHT30;54349;52.528;19.760;2023-04-24T14:20:33;25.53;37.53
67502;SHT30;54349;52.528;19.760;2023-04-24T14:23:01;25.53;37.61
67502;SHT30;54349;52.528;19.760;2023-04-24T14:25:31;25.53;37.64
67502;SHT30;54349;52.528;19.760;2023-04-24T14:27:59;25.54;37.72
67502;SHT30;54349;52.528;19.760;2023-04-24T14:30:27;25.52;37.73
67502;SHT30;54349;52.528;19.760;2023-04-24T14:32:56;25.52;37.81
67502;SHT30;54349;52.528;19.760;2023-04-24T14:35:25;25.51;37.88
67502;SHT30;54349;52.528;19.760;2023-04-24T14:37:55;25.51;37.92
67502;SHT30;54349;52.528;19.760;2023-04-24T14:40:23;25.49;37.94
67502;SHT30;54349;52.528;19.760;2023-04-24T14:43:11;25.49;37.98
67502;SHT30;54349;52.528;19.760;2023-04-24T14:45:40;25.49;38.00
67502;SHT30;54349;52.528;19.760;2023-04-24T14:48:09;25.48;38.07
67502;SHT30;54349;52.528;19.760;2023-04-24T14:50:38;25.47;38.10
67502;SHT30;54349;52.528;19.760;2023-04-24T14:53:08;25.46;38.11
67502;SHT30;54349;52.528;19.760;2023-04-24T14:55:36;25.44;38.14
67502;SHT30;54349;52.528;19.760;2023-04-24T14:58:05;25.43;38.20
67502;SHT30;54349;52.528;19.760;2023-04-24T15:00:33;25.42;38.20
67502;SHT30;54349;52.528;19.760;2023-04-24T15:03:01;25.41;38.22
67502;SHT30;54349;52.528;19.760;2023-04-24T15:05:30;25.40;38.27
67502;SHT30;54349;52.528;19.760;2023-04-24T15:07:59;25.40;38.30
67502;SHT30;54349;52.528;19.760;2023-04-24T15:10:27;25.38;38.32
67502;SHT30;54349;52.528;19.760;2023-04-24T15:12:57;25.38;38.37
67502;SHT30;54349;52.528;19.760;2023-04-24T15:15:26;25.36;38.39
67502;SHT30;54349;52.528;19.760;2023-04-24T15:17:54;25.35;38.40
67502;SHT30;54349;52.528;19.760;2023-04-24T15:20:23;25.33;38.40
67502;SHT30;54349;52.528;19.760;2023-04-24T15:22:51;25.32;38.45
67502;SHT30;54349;52.528;19.760;2023-04-24T15:25:20;25.31;38.46
67502;SHT30;54349;52.528;19.760;2023-04-24T15:27:48;25.30;38.47
67502;SHT30;54349;52.528;19.760;2023-04-24T15:30:16;25.29;38.48
67502;SHT30;54349;52.528;19.760;2023-04-24T15:32:46;25.27;38.52
67502;SHT30;54349;52.528;19.760;2023-04-24T15:35:14;25.26;38.51
67502;SHT30;54349;52.528;19.760;2023-04-24T15:37:43;25.25;38.54
67502;SHT30;54349;52.528;19.760;2023-04-24T15:40:12;25.24;38.58
67502;SHT30;54349;52.528;19.760;2023-04-24T15:42:43;25.23;38.68
67502;SHT30;54349;52.528;19.760;2023-04-24T15:45:13;25.22;38.70
67502;SHT30;54349;52.528;19.760;2023-04-24T15:47:43;25.21;38.79
67502;SHT30;54349;52.528;19.760;2023-04-24T15:50:14;25.19;38.86
67502;SHT30;54349;52.528;19.760;2023-04-24T15:52:44;25.18;38.94
67502;SHT30;54349;52.528;19.760;2023-04-24T15:55:12;25.17;38.97
67502;SHT30;54349;52.528;19.760;2023-04-24T15:57:41;25.15;39.02